Hickory Hill, Missouri
Current Conditions -  °F | °C
As of 10:53 PM on Thursday 30 Oct 2014 (Local Time) from KJEF Reporting Station
Clear Clear  
Wind Chill: 45°   Ceiling: Unl
Heat Index: 45°   Visibility: 10mi
Dew Point: 44°   Wind: 3mph
Humidity: 97%   Direction: 330°NNW
Pressure: 30.07"   Gusts: NA
Location:  38.3775°N, 92.3101°W
Report Text: KJEF 310353Z AUTO 33003KT 10SM CLR 07/07 A3007 RMK AO2 SLP175 T00720067
Loading
Personal Weather Stations






























Interactive Weather Map
Tropical Storm Tracking
New forecast layout! Learn more

10-Day Weather Forecast

Advertisements
Track Severe Weather on mobile